createdAt,value
2018-04-16T00:01:50.941Z,68.50
2018-04-16T00:04:19.226Z,67.90
2018-04-16T00:06:46.724Z,67.90
2018-04-16T00:09:14.238Z,68.00
2018-04-16T00:11:41.749Z,68.10
2018-04-16T00:14:09.269Z,68.20
2018-04-16T00:16:36.766Z,68.50
2018-04-16T00:19:04.285Z,69.50
2018-04-16T00:21:31.789Z,70.40
2018-04-16T00:23:59.297Z,70.30
2018-04-16T00:26:26.814Z,70.40
2018-04-16T00:28:54.325Z,70.60
2018-04-16T00:31:21.833Z,70.40
2018-04-16T00:33:55.917Z,76.00
2018-04-16T00:36:29.037Z,75.30
2018-04-16T00:39:02.375Z,75.80
2018-04-16T00:41:35.633Z,74.60
2018-04-16T00:44:09.719Z,76.70
2018-04-16T00:46:43.025Z,76.70
2018-04-16T00:49:16.206Z,76.20
2018-04-16T00:51:51.013Z,76.60
2018-04-16T00:54:24.289Z,76.60
2018-04-16T00:56:57.586Z,77.10
2018-04-16T00:59:30.909Z,78.10
2018-04-16T01:02:04.236Z,78.20
2018-04-16T01:04:38.237Z,77.60
2018-04-16T01:07:13.071Z,77.00
2018-04-16T01:09:46.408Z,77.00
2018-04-16T01:12:19.654Z,76.80
2018-04-16T01:14:52.959Z,76.80
2018-04-16T01:17:27.069Z,76.80
2018-04-16T01:20:01.093Z,76.30
2018-04-16T01:22:35.106Z,76.80
2018-04-16T01:25:09.194Z,76.80
2018-04-16T01:27:44.038Z,76.70
2018-04-16T01:30:18.137Z,77.20
2018-04-16T01:32:51.359Z,77.20
2018-04-16T01:35:25.333Z,77.50
2018-04-16T01:37:58.666Z,77.50
2018-04-16T01:40:32.717Z,78.80
2018-04-16T01:43:05.950Z,78.70
2018-04-16T01:45:39.234Z,78.80
2018-04-16T01:48:12.418Z,79.50
2018-04-16T01:50:45.625Z,80.00
2018-04-16T01:53:18.925Z,79.70
2018-04-16T01:55:53.025Z,80.60
2018-04-16T01:58:26.309Z,80.50
2018-04-16T02:01:00.337Z,80.50
2018-04-16T02:03:34.366Z,80.40
2018-04-16T02:06:08.281Z,81.90
2018-04-16T02:08:41.558Z,81.90
2018-04-16T02:11:15.708Z,84.00
2018-04-16T02:13:48.977Z,84.00
2018-04-16T02:16:23.070Z,85.20
2018-04-16T02:18:56.369Z,85.20
2018-04-16T02:21:30.362Z,84.30
2018-04-16T02:24:03.694Z,84.20
2018-04-16T02:26:36.962Z,84.50
2018-04-16T02:29:10.230Z,84.90
2018-04-16T02:31:43.450Z,85.60
2018-04-16T02:34:16.767Z,85.30
2018-04-16T02:36:50.128Z,85.40
2018-04-16T02:39:23.450Z,83.90
2018-04-16T02:41:57.561Z,82.00
2018-04-16T02:44:31.646Z,82.10
2018-04-16T02:47:04.973Z,82.00
2018-04-16T02:49:38.871Z,82.80
2018-04-16T02:52:12.970Z,84.00
2018-04-16T02:54:46.293Z,83.90
2018-04-16T02:57:20.378Z,84.00
2018-04-16T02:59:53.658Z,84.00
2018-04-16T03:02:26.873Z,84.20
2018-04-16T03:05:00.190Z,84.90
2018-04-16T03:07:33.430Z,86.50
2018-04-16T03:10:06.670Z,87.20
2018-04-16T03:12:40.610Z,88.60
2018-04-16T03:15:13.867Z,88.60
2018-04-16T03:17:47.973Z,89.70
2018-04-16T03:20:22.098Z,89.90
2018-04-16T03:22:56.169Z,89.90
2018-04-16T03:25:29.485Z,89.70
2018-04-16T03:28:03.577Z,88.40
2018-04-16T03:30:36.849Z,88.40
2018-04-16T03:33:10.070Z,87.20
2018-04-16T03:35:43.377Z,86.20
2018-04-16T03:38:16.638Z,86.10
2018-04-16T03:40:49.897Z,86.00
2018-04-16T03:43:23.174Z,85.10
2018-04-16T03:45:57.077Z,84.30
2018-04-16T03:48:31.210Z,83.70
2018-04-16T03:51:04.533Z,83.70
2018-04-16T03:53:32.042Z,83.60
2018-04-16T03:56:02.298Z,84.10
2018-04-16T03:58:29.806Z,84.00
2018-04-16T04:00:57.322Z,84.40
2018-04-16T04:03:24.824Z,84.20
2018-04-16T04:05:52.331Z,84.30
2018-04-16T04:08:19.866Z,84.40
2018-04-16T04:10:48.137Z,84.20
2018-04-16T04:13:16.417Z,84.30
2018-04-16T04:15:44.694Z,85.50
2018-04-16T04:18:12.962Z,85.60
2018-04-16T04:20:41.238Z,85.60
2018-04-16T04:23:20.701Z,85.60
2018-04-16T04:26:00.159Z,85.50
2018-04-16T04:28:39.638Z,85.30
2018-04-16T04:31:07.170Z,85.30
2018-04-16T04:33:34.673Z,85.80
2018-04-16T04:36:02.953Z,88.70
2018-04-16T04:38:31.228Z,88.60
2018-04-16T04:40:59.517Z,89.70
2018-04-16T04:43:27.830Z,90.70
2018-04-16T04:45:55.338Z,90.60
2018-04-16T04:48:22.837Z,91.20
2018-04-16T04:50:50.346Z,91.30
2018-04-16T04:53:18.617Z,91.60
2018-04-16T04:55:47.645Z,91.90
2018-04-16T04:58:15.929Z,91.90
2018-04-16T05:00:43.439Z,91.90
2018-04-16T05:03:10.957Z,92.00
2018-04-16T05:05:38.461Z,92.20
2018-04-16T05:08:05.980Z,92.20
2018-04-16T05:10:33.485Z,92.30
2018-04-16T05:13:01.098Z,92.30
2018-04-16T05:15:28.625Z,92.00
2018-04-16T05:17:56.893Z,91.40
2018-04-16T05:20:25.166Z,91.10
2018-04-16T05:22:53.441Z,90.90
2018-04-16T05:25:20.953Z,90.50
2018-04-16T05:27:48.457Z,90.30
2018-04-16T05:30:16.741Z,90.20
2018-04-16T05:32:45.056Z,89.40
2018-04-16T05:35:12.561Z,89.30
2018-04-16T05:37:40.067Z,88.40
2018-04-16T05:40:07.590Z,88.00
2018-04-16T05:42:37.348Z,87.90
2018-04-16T05:45:04.920Z,87.90
2018-04-16T05:47:32.439Z,87.70
2018-04-16T05:50:00.709Z,87.70
2018-04-16T05:52:28.991Z,87.80
2018-04-16T05:54:57.253Z,87.50
2018-04-16T05:57:25.546Z,87.70
2018-04-16T05:59:53.830Z,89.20
2018-04-16T06:02:21.334Z,89.10
2018-04-16T06:04:48.837Z,89.30
2018-04-16T06:07:17.103Z,89.30
2018-04-16T06:09:45.370Z,90.00
2018-04-16T06:12:12.889Z,90.00
2018-04-16T06:14:40.415Z,90.00
2018-04-16T06:17:07.918Z,89.80
2018-04-16T06:19:35.434Z,88.90
2018-04-16T06:22:02.934Z,89.30
2018-04-16T06:24:30.439Z,89.50
2018-04-16T06:26:58.716Z,90.00
2018-04-16T06:29:26.981Z,90.00
2018-04-16T06:31:55.269Z,89.60
2018-04-16T06:34:23.545Z,88.90
2018-04-16T06:36:51.831Z,89.10
2018-04-16T06:39:20.093Z,88.60
2018-04-16T06:41:48.368Z,88.30
2018-04-16T06:44:16.638Z,86.40
2018-04-16T06:46:44.929Z,85.30
2018-04-16T06:49:13.198Z,85.30
2018-04-16T06:51:41.469Z,85.40
2018-04-16T06:54:09.755Z,85.50
2018-04-16T06:56:37.272Z,85.50
2018-04-16T06:59:04.782Z,86.00
2018-04-16T07:01:32.335Z,84.60
2018-04-16T07:03:59.871Z,84.00
2018-04-16T07:06:28.181Z,81.80
2018-04-16T07:08:55.691Z,81.70
2018-04-16T07:11:23.222Z,81.60
2018-04-16T07:13:50.726Z,81.10
2018-04-16T07:16:19.018Z,80.50
2018-04-16T07:18:47.281Z,79.40
2018-04-16T07:21:15.570Z,78.10
2018-04-16T07:23:43.843Z,78.20
2018-04-16T07:26:12.133Z,77.80
2018-04-16T07:28:39.640Z,77.80
2018-04-16T07:31:07.141Z,78.90
2018-04-16T07:33:35.441Z,80.60
2018-04-16T07:36:03.706Z,80.90
2018-04-16T07:38:31.211Z,80.90
2018-04-16T07:40:58.709Z,81.00
2018-04-16T07:43:27.001Z,79.60
2018-04-16T07:45:54.505Z,79.60
2018-04-16T07:48:22.019Z,79.60
2018-04-16T07:50:49.522Z,78.90
2018-04-16T07:53:17.050Z,79.70
2018-04-16T07:55:44.568Z,79.60
2018-04-16T07:58:12.845Z,79.50
2018-04-16T08:00:41.130Z,79.30
2018-04-16T08:03:09.397Z,78.30
2018-04-16T08:05:37.686Z,77.90
2018-04-16T08:08:05.981Z,77.10
2018-04-16T08:10:33.509Z,77.10
2018-04-16T08:13:01.775Z,79.20
2018-04-16T08:15:29.282Z,78.50
2018-04-16T08:17:56.789Z,79.80
2018-04-16T08:20:24.301Z,79.80
2018-04-16T08:22:51.803Z,80.30
2018-04-16T08:25:19.304Z,80.60
2018-04-16T08:27:46.810Z,80.40
2018-04-16T08:30:14.338Z,81.00
2018-04-16T08:32:41.852Z,81.80
2018-04-16T08:35:09.357Z,81.30
2018-04-16T08:37:36.870Z,80.70
2018-04-16T08:40:04.371Z,80.10
2018-04-16T08:42:31.884Z,78.70
2018-04-16T08:45:00.893Z,79.50
2018-04-16T08:47:29.161Z,79.60
2018-04-16T08:49:57.690Z,76.30
2018-04-16T08:52:25.191Z,76.20
2018-04-16T08:54:53.517Z,72.90
2018-04-16T08:57:21.034Z,72.90
2018-04-16T08:59:49.878Z,73.10
2018-04-16T09:02:17.381Z,72.10
2018-04-16T09:04:45.649Z,68.40
2018-04-16T09:07:13.178Z,68.40
2018-04-16T09:09:40.715Z,70.40
2018-04-16T09:12:08.280Z,70.00
2018-04-16T09:14:35.787Z,67.90
2018-04-16T09:17:04.060Z,66.70
2018-04-16T09:19:31.675Z,66.60
2018-04-16T09:21:59.191Z,67.60
2018-04-16T09:24:26.727Z,68.10
2018-04-16T09:26:54.266Z,68.40
2018-04-16T09:29:21.794Z,67.10
2018-04-16T09:31:49.310Z,67.80
2018-04-16T09:34:16.834Z,67.40
2018-04-16T09:36:44.334Z,66.10
2018-04-16T09:39:11.848Z,64.50
2018-04-16T09:41:39.345Z,66.80
2018-04-16T09:44:06.850Z,65.40
2018-04-16T09:46:34.351Z,65.40
2018-04-16T09:49:01.869Z,65.70
2018-04-16T09:51:29.382Z,65.10
2018-04-16T09:53:57.666Z,64.30
2018-04-16T09:56:26.681Z,63.20
2018-04-16T09:58:54.941Z,63.30
2018-04-16T10:01:22.438Z,63.30
2018-04-16T10:03:49.942Z,63.40
2018-04-16T10:06:17.459Z,63.40
2018-04-16T10:08:44.957Z,63.70
2018-04-16T10:11:12.462Z,63.30
2018-04-16T10:13:39.989Z,63.80
2018-04-16T10:16:08.271Z,63.70
2018-04-16T10:18:36.553Z,63.70
2018-04-16T10:21:04.857Z,62.70
2018-04-16T10:23:32.362Z,62.70
2018-04-16T10:25:59.876Z,63.50
2018-04-16T10:28:27.384Z,62.80
2018-04-16T10:30:54.886Z,61.30
2018-04-16T10:33:22.389Z,61.00
2018-04-16T10:35:49.885Z,60.80
2018-04-16T10:38:18.169Z,60.50
2018-04-16T10:40:46.448Z,60.20
2018-04-16T10:43:14.714Z,60.10
2018-04-16T10:45:42.995Z,60.80
2018-04-16T10:48:11.262Z,60.90
2018-04-16T10:50:39.544Z,60.60
2018-04-16T10:53:07.810Z,60.20
2018-04-16T10:55:36.190Z,60.30
2018-04-16T10:58:04.374Z,60.80
2018-04-16T11:00:32.646Z,59.20
2018-04-16T11:03:00.912Z,58.40
2018-04-16T11:05:28.418Z,58.40
2018-04-16T11:07:55.931Z,59.10
2018-04-16T11:10:23.446Z,58.60
2018-04-16T11:12:50.943Z,59.90
2018-04-16T11:15:19.206Z,59.40
2018-04-16T11:17:46.705Z,59.40
2018-04-16T11:20:14.223Z,59.50
2018-04-16T11:22:41.731Z,59.60
2018-04-16T11:25:09.245Z,60.50
2018-04-16T11:27:36.781Z,60.50
2018-04-16T11:30:04.283Z,60.10
2018-04-16T11:32:33.831Z,58.60
2018-04-16T11:35:01.339Z,58.60
2018-04-16T11:37:29.611Z,60.70
2018-04-16T11:39:57.898Z,60.00
2018-04-16T11:42:26.175Z,59.60
2018-04-16T11:44:54.454Z,60.00
2018-04-16T11:47:22.741Z,60.40
2018-04-16T11:49:51.024Z,61.20
2018-04-16T11:52:18.537Z,61.20
2018-04-16T11:54:47.571Z,61.30
2018-04-16T11:57:15.854Z,61.90
2018-04-16T11:59:43.366Z,61.80
2018-04-16T12:02:10.889Z,61.70
2018-04-16T12:04:38.415Z,63.00
2018-04-16T12:07:06.685Z,62.90
2018-04-16T12:09:34.974Z,62.70
2018-04-16T12:12:03.257Z,62.50
2018-04-16T12:14:31.529Z,62.70
2018-04-16T12:16:59.830Z,63.40
2018-04-16T12:19:27.357Z,63.30
2018-04-16T12:21:55.627Z,63.20
2018-04-16T12:24:23.928Z,63.30
2018-04-16T12:26:51.510Z,63.30
2018-04-16T12:29:19.023Z,62.50
2018-04-16T12:31:47.297Z,64.10
2018-04-16T12:34:15.575Z,64.80
2018-04-16T12:36:43.866Z,63.50
2018-04-16T12:39:12.181Z,62.90
2018-04-16T12:41:39.677Z,62.90
2018-04-16T12:44:07.944Z,62.10
2018-04-16T12:46:35.457Z,62.10
2018-04-16T12:49:02.966Z,62.30
2018-04-16T12:51:30.493Z,61.80
2018-04-16T12:53:58.001Z,62.30
2018-04-16T12:56:26.280Z,62.80
2018-04-16T12:58:54.550Z,62.70
2018-04-16T13:01:22.133Z,62.70
2018-04-16T13:03:50.421Z,61.90
2018-04-16T13:06:17.939Z,61.90
2018-04-16T13:08:46.962Z,63.20
2018-04-16T13:11:14.469Z,63.10
2018-04-16T13:13:41.997Z,63.20
2018-04-16T13:16:09.522Z,63.70
2018-04-16T13:18:37.791Z,64.00
2018-04-16T13:21:06.117Z,64.70
2018-04-16T13:23:33.617Z,63.90
2018-04-16T13:26:01.142Z,63.90
2018-04-16T13:28:28.647Z,64.10
2018-04-16T13:30:56.930Z,64.50
2018-04-16T13:33:25.214Z,63.80
2018-04-16T13:35:53.511Z,63.90
2018-04-16T13:38:21.041Z,63.90
2018-04-16T13:40:49.310Z,63.70
2018-04-16T13:43:16.817Z,63.70
2018-04-16T13:45:44.335Z,63.60
2018-04-16T13:48:12.605Z,63.70
2018-04-16T13:50:40.899Z,63.60
2018-04-16T13:53:08.421Z,63.60
2018-04-16T13:55:35.938Z,62.80
2018-04-16T13:58:03.450Z,63.00
2018-04-16T14:00:31.741Z,63.90
2018-04-16T14:03:00.039Z,64.30
2018-04-16T14:05:27.550Z,64.30
2018-04-16T14:07:55.052Z,64.30
2018-04-16T14:10:22.571Z,63.60
2018-04-16T14:12:50.087Z,63.60
2018-04-16T14:15:17.593Z,63.70
2018-04-16T14:17:45.869Z,63.70
2018-04-16T14:20:13.400Z,63.40
2018-04-16T14:22:40.898Z,62.60
2018-04-16T14:25:09.173Z,63.40
2018-04-16T14:27:37.449Z,63.80
2018-04-16T14:30:05.739Z,62.80
2018-04-16T14:32:34.025Z,63.30
2018-04-16T14:35:02.702Z,63.30
2018-04-16T14:37:30.965Z,63.00
2018-04-16T14:39:58.482Z,63.00
2018-04-16T14:42:26.006Z,62.70
2018-04-16T14:44:54.278Z,62.40
2018-04-16T14:47:22.569Z,62.10
2018-04-16T14:49:50.097Z,62.10
2018-04-16T14:52:18.369Z,61.80
2018-04-16T14:54:46.638Z,62.50
2018-04-16T14:57:14.145Z,61.60
2018-04-16T14:59:41.673Z,61.60
2018-04-16T15:02:09.946Z,62.80
2018-04-16T15:04:38.229Z,63.80
2018-04-16T15:07:06.506Z,64.20
2018-04-16T15:09:34.785Z,64.80
2018-04-16T15:12:03.074Z,65.20
2018-04-16T15:14:30.593Z,65.20
2018-04-16T15:16:58.210Z,65.90
2018-04-16T15:19:25.718Z,65.60
2018-04-16T15:21:53.981Z,69.50
2018-04-16T15:24:24.992Z,69.50
2018-04-16T15:26:52.686Z,70.90
2018-04-16T15:29:20.199Z,71.00
2018-04-16T15:31:47.705Z,71.20
2018-04-16T15:34:15.233Z,71.20
2018-04-16T15:36:43.034Z,71.10
2018-04-16T15:39:10.546Z,71.90
2018-04-16T15:41:38.054Z,71.70
2018-04-16T15:44:07.057Z,73.20
2018-04-16T15:46:35.333Z,75.50
2018-04-16T15:49:03.606Z,74.40
2018-04-16T15:51:31.865Z,73.00
2018-04-16T15:53:59.375Z,73.60
2018-04-16T15:56:26.887Z,70.80
2018-04-16T15:58:54.409Z,71.40
2018-04-16T16:01:21.917Z,70.80
2018-04-16T16:03:50.178Z,70.70
2018-04-16T16:06:17.677Z,70.60
2018-04-16T16:08:45.189Z,70.00
2018-04-16T16:11:12.689Z,69.00
2018-04-16T16:13:40.946Z,69.20
2018-04-16T16:16:09.267Z,67.40
2018-04-16T16:18:36.773Z,67.30
2018-04-16T16:21:04.271Z,67.70
2018-04-16T16:23:31.785Z,67.50
2018-04-16T16:25:59.283Z,67.20
2018-04-16T16:28:26.793Z,66.80
2018-04-16T16:30:54.302Z,67.30
2018-04-16T16:33:21.814Z,66.50
2018-04-16T16:35:49.326Z,65.30
2018-04-16T16:38:16.852Z,66.90
2018-04-16T16:40:45.147Z,69.80
2018-04-16T16:43:13.421Z,70.20
2018-04-16T16:45:41.698Z,69.30
2018-04-16T16:48:09.980Z,66.90
2018-04-16T16:50:37.513Z,66.90
2018-04-16T16:53:05.781Z,65.50
2018-04-16T16:55:33.282Z,65.30
2018-04-16T16:58:00.781Z,65.60
2018-04-16T17:00:28.281Z,66.30
2018-04-16T17:02:56.541Z,69.20
2018-04-16T17:05:24.822Z,71.30
2018-04-16T17:07:53.109Z,72.90
2018-04-16T17:10:21.378Z,73.20
2018-04-16T17:12:49.650Z,74.00
2018-04-16T17:15:17.960Z,74.50
2018-04-16T17:17:45.479Z,74.40
2018-04-16T17:20:12.999Z,75.00
2018-04-16T17:22:40.490Z,75.70
2018-04-16T17:25:08.010Z,74.90
2018-04-16T17:27:35.510Z,75.60
2018-04-16T17:30:03.021Z,75.50
2018-04-16T17:32:30.545Z,76.70
2018-04-16T17:34:58.825Z,78.20
2018-04-16T17:37:27.093Z,78.00
2018-04-16T17:39:55.361Z,76.60
2018-04-16T17:42:23.184Z,76.60
2018-04-16T17:44:50.681Z,76.20
2018-04-16T17:47:18.199Z,75.80
2018-04-16T17:49:45.710Z,74.50
2018-04-16T17:52:13.993Z,75.40
2018-04-16T17:54:42.261Z,75.30
2018-04-16T17:57:10.555Z,77.10
2018-04-16T17:59:38.825Z,76.50
2018-04-16T18:02:07.090Z,75.40
2018-04-16T18:04:34.619Z,75.40
2018-04-16T18:07:02.127Z,75.80
2018-04-16T18:09:29.636Z,75.10
2018-04-16T18:11:57.136Z,74.60
2018-04-16T18:14:25.410Z,73.90
2018-04-16T18:16:53.688Z,74.20
2018-04-16T18:19:21.954Z,74.40
2018-04-16T18:21:49.452Z,74.40
2018-04-16T18:24:16.969Z,74.10
2018-04-16T18:26:44.486Z,74.10
2018-04-16T18:29:12.755Z,74.90
2018-04-16T18:31:40.253Z,74.00
2018-04-16T18:34:07.758Z,73.70
2018-04-16T18:36:35.258Z,74.10
2018-04-16T18:39:02.769Z,74.70
2018-04-16T18:41:30.310Z,74.80
2018-04-16T18:43:57.791Z,75.40
2018-04-16T18:46:25.291Z,75.90
2018-04-16T18:48:52.799Z,76.80
2018-04-16T18:51:20.321Z,77.60
2018-04-16T18:53:47.834Z,78.80
2018-04-16T18:56:15.350Z,79.70
2018-04-16T18:58:43.625Z,81.60
2018-04-16T19:01:11.909Z,82.70
2018-04-16T19:03:40.187Z,83.30
2018-04-16T19:06:08.470Z,84.30
2018-04-16T19:08:36.742Z,84.40
2018-04-16T19:11:05.034Z,85.20
2018-04-16T19:13:32.546Z,85.20
2018-04-16T19:16:00.095Z,85.00
2018-04-16T19:23:03.264Z,85.90
2018-04-16T19:25:31.611Z,87.40
2018-04-16T19:28:15.885Z,87.30
2018-04-16T19:30:44.172Z,87.90
2018-04-16T19:33:18.886Z,87.90
2018-04-16T19:35:47.161Z,87.20
2018-04-16T19:38:15.442Z,88.10
2018-04-16T19:40:43.730Z,88.30
2018-04-16T19:43:12.018Z,87.90
2018-04-16T19:45:39.537Z,87.90
2018-04-16T19:48:07.149Z,87.60
2018-04-16T19:50:34.666Z,86.40
2018-04-16T19:53:02.194Z,86.40
2018-04-16T19:55:44.594Z,86.20
2018-04-16T19:58:28.917Z,86.50
2018-04-16T20:00:56.433Z,87.00
2018-04-16T20:03:29.561Z,86.50
2018-04-16T20:05:57.081Z,86.60
2018-04-16T20:08:25.351Z,86.20
2018-04-16T20:10:53.653Z,86.10
2018-04-16T20:13:21.933Z,85.50
2018-04-16T20:15:50.202Z,85.50
2018-04-16T20:18:18.497Z,85.40
2018-04-16T20:20:46.010Z,85.40
2018-04-16T20:23:13.526Z,85.20
2018-04-16T20:25:41.034Z,85.40
2018-04-16T20:28:08.550Z,85.40
2018-04-16T20:30:36.842Z,84.70
2018-04-16T20:33:04.346Z,84.80
2018-04-16T20:35:31.856Z,84.80
2018-04-16T20:37:59.369Z,84.40
2018-04-16T20:40:27.658Z,83.50
2018-04-16T20:42:55.922Z,83.40
2018-04-16T20:45:24.203Z,83.40
2018-04-16T20:47:52.490Z,83.10
2018-04-16T20:50:20.018Z,82.90
2018-04-16T20:52:49.038Z,83.20
2018-04-16T20:55:17.315Z,82.80
2018-04-16T20:57:45.595Z,83.10
2018-04-16T21:00:13.866Z,82.90
2018-04-16T21:02:42.129Z,83.00
2018-04-16T21:05:10.405Z,83.30
2018-04-16T21:07:38.724Z,83.20
2018-04-16T21:10:06.241Z,83.00
2018-04-16T21:12:33.744Z,82.50
2018-04-16T21:15:01.246Z,82.70
2018-04-16T21:17:28.746Z,83.00
2018-04-16T21:19:56.269Z,83.10
2018-04-16T21:22:23.802Z,83.30
2018-04-16T21:24:51.318Z,83.10
2018-04-16T21:27:18.854Z,83.20
2018-04-16T21:29:47.125Z,83.60
2018-04-16T21:32:14.637Z,83.40
2018-04-16T21:34:42.153Z,83.70
2018-04-16T21:37:10.433Z,83.70
2018-04-16T21:39:38.707Z,83.60
2018-04-16T21:42:06.996Z,83.40
2018-04-16T21:44:35.281Z,83.20
2018-04-16T21:47:02.805Z,83.20
2018-04-16T21:49:30.310Z,83.30
2018-04-16T21:51:57.827Z,84.30
2018-04-16T21:54:26.110Z,83.50
2018-04-16T21:56:54.388Z,83.20
2018-04-16T21:59:22.662Z,83.20
2018-04-16T22:01:50.946Z,83.10
2018-04-16T22:04:19.213Z,83.00
2018-04-16T22:06:47.497Z,83.00
2018-04-16T22:09:15.773Z,83.00
2018-04-16T22:11:44.047Z,82.90
2018-04-16T22:14:12.330Z,83.10
2018-04-16T22:16:39.855Z,83.10
2018-04-16T22:19:07.357Z,83.30
2018-04-16T22:21:34.862Z,83.50
2018-04-16T22:24:02.381Z,83.50
2018-04-16T22:26:29.881Z,83.40
2018-04-16T22:28:57.397Z,83.50
2018-04-16T22:31:24.925Z,83.10
2018-04-16T22:33:53.194Z,83.30
2018-04-16T22:36:20.805Z,83.00
2018-04-16T22:38:48.322Z,82.80
2018-04-16T22:41:16.610Z,83.90
2018-04-16T22:43:44.878Z,82.80
2018-04-16T22:46:13.149Z,82.80
2018-04-16T22:48:40.655Z,82.80
2018-04-16T22:51:08.165Z,82.60
2018-04-16T22:53:35.666Z,82.50
2018-04-16T22:56:03.189Z,82.30
2018-04-16T22:58:31.470Z,81.90
2018-04-16T23:00:59.737Z,81.90
2018-04-16T23:03:28.010Z,82.80
2018-04-16T23:05:55.538Z,82.00
2018-04-16T23:08:23.065Z,81.80
2018-04-16T23:10:50.574Z,82.00
2018-04-16T23:13:18.196Z,82.10
2018-04-16T23:15:45.710Z,82.30
2018-04-16T23:18:14.005Z,81.70
2018-04-16T23:20:43.226Z,82.00
2018-04-16T23:23:10.745Z,81.60
2018-04-16T23:25:39.054Z,81.80
2018-04-16T23:28:06.557Z,81.70
2018-04-16T23:30:34.061Z,81.80
2018-04-16T23:33:01.574Z,80.80
2018-04-16T23:35:29.078Z,80.80
2018-04-16T23:37:56.582Z,81.00
2018-04-16T23:40:24.115Z,80.90
2018-04-16T23:42:51.621Z,80.90
2018-04-16T23:45:19.895Z,81.10
2018-04-16T23:47:47.511Z,81.10
2018-04-16T23:50:15.018Z,81.30
2018-04-16T23:52:42.550Z,81.70
2018-04-16T23:55:10.053Z,81.90
2018-04-16T23:57:38.330Z,82.10
